createdAt,value
2019-05-11T00:01:45.248Z,9.17
2019-05-11T00:06:46.752Z,9.07
2019-05-11T00:11:48.401Z,8.90
2019-05-11T00:16:49.916Z,8.74
2019-05-11T00:21:51.352Z,8.61
2019-05-11T00:26:52.843Z,8.45
2019-05-11T00:31:54.457Z,8.36
2019-05-11T00:36:55.872Z,8.23
2019-05-11T00:41:57.277Z,8.10
2019-05-11T00:46:58.678Z,7.99
2019-05-11T00:52:00.146Z,7.88
2019-05-11T00:57:01.665Z,7.75
2019-05-11T01:02:03.039Z,7.69
2019-05-11T01:07:04.400Z,7.60
2019-05-11T01:12:05.886Z,7.55
2019-05-11T01:17:07.393Z,7.48
2019-05-11T01:22:08.915Z,7.44
2019-05-11T01:27:10.392Z,7.41
2019-05-11T01:32:11.906Z,7.39
2019-05-11T01:37:13.320Z,7.37
2019-05-11T01:42:14.888Z,7.38
2019-05-11T01:47:16.390Z,7.39
2019-05-11T01:52:17.904Z,7.39
2019-05-11T01:57:19.410Z,7.31
2019-05-11T02:02:20.893Z,7.22
2019-05-11T02:07:22.438Z,7.18
2019-05-11T02:12:24.056Z,7.18
2019-05-11T02:17:25.557Z,7.13
2019-05-11T02:22:27.066Z,6.98
2019-05-11T02:27:28.559Z,6.89
2019-05-11T02:32:29.941Z,6.79
2019-05-11T02:37:31.492Z,6.69
2019-05-11T02:42:32.992Z,6.61
2019-05-11T02:47:34.475Z,6.51
2019-05-11T02:52:36.067Z,6.40
2019-05-11T02:57:37.590Z,6.39
2019-05-11T03:02:39.117Z,6.37
2019-05-11T03:07:40.588Z,6.34
2019-05-11T03:12:42.098Z,6.26
2019-05-11T03:17:43.634Z,6.18
2019-05-11T03:22:45.155Z,6.12
2019-05-11T03:27:46.663Z,6.02
2019-05-11T03:32:48.179Z,5.93
2019-05-11T03:37:49.709Z,5.88
2019-05-11T03:42:51.130Z,5.79
2019-05-11T03:47:52.579Z,5.73
2019-05-11T03:52:53.981Z,5.69
2019-05-11T03:57:55.473Z,5.64
2019-05-11T04:02:56.904Z,5.57
2019-05-11T04:07:58.394Z,5.53
2019-05-11T04:12:59.916Z,5.51
2019-05-11T04:18:01.348Z,5.64
2019-05-11T04:23:02.637Z,5.50
2019-05-11T04:28:04.146Z,5.47
2019-05-11T04:33:05.683Z,5.52
2019-05-11T04:38:07.295Z,5.53
2019-05-11T04:43:08.822Z,5.55
2019-05-11T04:48:10.362Z,5.57
2019-05-11T04:53:11.754Z,5.61
2019-05-11T04:58:13.251Z,5.68
2019-05-11T05:03:14.730Z,5.70
2019-05-11T05:08:16.202Z,5.80
2019-05-11T05:13:17.718Z,5.83
2019-05-11T05:18:19.121Z,5.93
2019-05-11T05:23:20.488Z,6.00
2019-05-11T05:28:21.924Z,6.10
2019-05-11T05:33:23.461Z,6.20
2019-05-11T05:38:24.953Z,6.27
2019-05-11T05:43:28.560Z,6.35
2019-05-11T05:48:30.022Z,6.48
2019-05-11T05:53:31.528Z,6.57
2019-05-11T05:58:33.187Z,6.71
2019-05-11T06:03:34.583Z,6.85
2019-05-11T06:08:36.081Z,6.97
2019-05-11T06:13:45.415Z,7.03
2019-05-11T06:18:41.189Z,7.08
2019-05-11T06:23:42.746Z,7.22
2019-05-11T06:28:44.458Z,7.36
2019-05-11T06:33:45.963Z,7.51
2019-05-11T06:38:47.495Z,7.76
2019-05-11T06:44:01.146Z,8.04
2019-05-11T06:48:52.419Z,8.25
2019-05-11T06:53:54.008Z,8.27
2019-05-11T06:58:55.634Z,8.37
2019-05-11T07:03:57.228Z,8.54
2019-05-11T07:08:59.566Z,8.72
2019-05-11T07:14:18.659Z,8.87
2019-05-11T07:19:04.467Z,8.92
2019-05-11T07:24:05.809Z,9.03
2019-05-11T07:29:07.397Z,9.20
2019-05-11T07:34:08.954Z,9.48
2019-05-11T07:39:10.444Z,9.62
2019-05-11T07:44:12.014Z,9.77
2019-05-11T07:49:13.538Z,9.94
2019-05-11T07:54:15.030Z,10.08
2019-05-11T07:59:18.340Z,10.39
2019-05-11T08:04:20.246Z,10.76
2019-05-11T08:09:22.351Z,10.96
2019-05-11T08:14:23.939Z,11.18
2019-05-11T08:19:28.091Z,11.33
2019-05-11T08:24:28.877Z,11.62
2019-05-11T08:29:30.381Z,11.83
2019-05-11T08:34:32.029Z,12.07
2019-05-11T08:39:33.328Z,12.32
2019-05-11T08:44:34.884Z,12.55
2019-05-11T08:49:38.100Z,12.90
2019-05-11T08:54:39.926Z,13.03
2019-05-11T08:59:41.504Z,13.05
2019-05-11T09:04:43.076Z,13.09
2019-05-11T09:09:44.597Z,13.29
2019-05-11T09:14:47.878Z,13.51
2019-05-11T09:19:49.603Z,13.78
2019-05-11T09:24:50.995Z,13.93
2019-05-11T09:29:52.547Z,14.43
2019-05-11T09:34:54.068Z,14.59
2019-05-11T09:39:55.572Z,14.30
2019-05-11T09:44:57.787Z,14.25
2019-05-11T09:49:59.490Z,14.75
2019-05-11T09:55:01.010Z,15.19
2019-05-11T10:00:02.795Z,15.57
2019-05-11T10:05:04.563Z,14.94
2019-05-11T10:10:06.104Z,15.12
2019-05-11T10:15:08.354Z,14.61
2019-05-11T10:20:10.174Z,14.95
2019-05-11T10:25:11.675Z,15.49
2019-05-11T10:30:13.221Z,15.55
2019-05-11T10:35:14.751Z,15.10
2019-05-11T10:40:18.984Z,15.12
2019-05-11T10:45:20.094Z,15.54
2019-05-11T10:50:21.574Z,15.66
2019-05-11T10:55:22.807Z,15.81
2019-05-11T11:00:24.392Z,15.63
2019-05-11T11:05:27.950Z,16.04
2019-05-11T11:10:29.327Z,16.25
2019-05-11T11:15:30.961Z,16.07
2019-05-11T11:20:32.521Z,16.02
2019-05-11T11:25:34.041Z,16.17
2019-05-11T11:30:37.722Z,15.83
2019-05-11T11:35:38.821Z,15.73
2019-05-11T11:40:42.840Z,15.70
2019-05-11T11:45:43.875Z,15.86
2019-05-11T11:50:45.442Z,15.93
2019-05-11T11:55:48.178Z,15.67
2019-05-11T12:00:49.951Z,15.36
2019-05-11T12:05:51.490Z,15.66
2019-05-11T12:10:52.963Z,15.76
2019-05-11T12:15:54.511Z,15.74
2019-05-11T12:20:55.946Z,15.55
2019-05-11T12:25:58.064Z,15.63
2019-05-11T12:30:59.637Z,15.70
2019-05-11T12:36:01.175Z,15.68
2019-05-11T12:41:02.737Z,15.78
2019-05-11T12:46:04.363Z,15.78
2019-05-11T12:51:08.058Z,15.66
2019-05-11T12:56:09.483Z,15.58
2019-05-11T13:01:11.110Z,15.77
2019-05-11T13:06:14.734Z,15.70
2019-05-11T13:11:18.425Z,15.86
2019-05-11T13:16:19.574Z,15.78
2019-05-11T13:21:20.996Z,15.93
2019-05-11T13:26:22.545Z,15.92
2019-05-11T13:31:24.157Z,15.81
2019-05-11T13:36:28.515Z,15.85
2019-05-11T13:41:29.674Z,15.90
2019-05-11T13:46:32.246Z,15.89
2019-05-11T13:51:33.747Z,15.99
2019-05-11T13:56:35.306Z,16.04
2019-05-11T14:01:38.095Z,16.07
2019-05-11T14:06:39.914Z,16.23
2019-05-11T14:11:44.788Z,16.17
2019-05-11T14:16:44.904Z,16.11
2019-05-11T14:21:48.800Z,16.27
2019-05-11T14:26:49.878Z,16.11
2019-05-11T14:31:51.408Z,16.23
2019-05-11T14:36:52.882Z,16.21
2019-05-11T14:41:54.343Z,16.10
2019-05-11T14:46:55.907Z,16.07
2019-05-11T14:51:57.835Z,16.13
2019-05-11T14:56:59.428Z,16.06
2019-05-11T15:02:00.983Z,16.16
2019-05-11T15:07:02.518Z,16.29
2019-05-11T15:12:03.977Z,16.21
2019-05-11T15:17:05.489Z,16.18
2019-05-11T15:22:08.638Z,15.73
2019-05-11T15:27:10.256Z,15.82
2019-05-11T15:32:11.930Z,15.94
2019-05-11T15:37:13.449Z,15.90
2019-05-11T15:42:17.549Z,15.74
2019-05-11T15:47:18.402Z,15.67
2019-05-11T15:52:19.893Z,15.59
2019-05-11T15:57:21.504Z,15.74
2019-05-11T16:02:23.011Z,15.58
2019-05-11T16:07:24.481Z,15.50
2019-05-11T16:12:25.865Z,15.45
2019-05-11T16:17:27.405Z,15.34
2019-05-11T16:22:28.939Z,15.37
2019-05-11T16:27:30.402Z,15.54
2019-05-11T16:32:31.890Z,15.35
2019-05-11T16:37:33.415Z,16.35
2019-05-11T16:42:34.902Z,17.51
2019-05-11T16:47:38.921Z,16.70
2019-05-11T16:52:40.291Z,15.81
2019-05-11T16:57:41.803Z,15.47
2019-05-11T17:02:43.373Z,15.31
2019-05-11T17:07:44.795Z,15.23
2019-05-11T17:12:48.449Z,14.98
2019-05-11T17:17:49.835Z,14.66
2019-05-11T17:22:53.733Z,14.65
2019-05-11T17:27:54.830Z,14.10
2019-05-11T17:32:56.311Z,13.82
2019-05-11T17:37:57.841Z,13.75
2019-05-11T17:42:59.369Z,13.60
2019-05-11T17:48:00.922Z,13.40
2019-05-11T17:53:02.465Z,13.11
2019-05-11T17:58:04.045Z,12.80
2019-05-11T18:03:08.321Z,12.64
2019-05-11T18:08:08.914Z,12.57
2019-05-11T18:13:10.461Z,12.43
2019-05-11T18:18:12.082Z,12.26
2019-05-11T18:23:13.677Z,12.00
2019-05-11T18:28:15.216Z,11.92
2019-05-11T18:33:18.823Z,11.89
2019-05-11T18:38:20.251Z,11.72
2019-05-11T18:43:21.801Z,11.71
2019-05-11T18:48:23.377Z,11.64
2019-05-11T18:53:24.902Z,11.52
2019-05-11T18:58:27.669Z,11.35
2019-05-11T19:03:29.487Z,11.23
2019-05-11T19:08:31.948Z,11.10
2019-05-11T19:13:33.377Z,10.87
2019-05-11T19:18:34.921Z,10.73
2019-05-11T19:23:38.027Z,10.60
2019-05-11T19:28:39.705Z,10.44
2019-05-11T19:33:41.273Z,10.29
2019-05-11T19:38:42.773Z,10.11
2019-05-11T19:43:44.372Z,10.17
2019-05-11T19:48:47.504Z,9.93
2019-05-11T19:53:49.137Z,9.81
2019-05-11T19:58:51.703Z,9.66
2019-05-11T20:03:53.127Z,9.51
2019-05-11T20:08:54.660Z,9.37
2019-05-11T20:13:56.142Z,9.25
2019-05-11T20:18:59.576Z,9.12
2019-05-11T20:24:01.119Z,8.98
2019-05-11T20:29:02.837Z,8.92
2019-05-11T20:34:04.386Z,8.80
2019-05-11T20:39:05.887Z,8.68
2019-05-11T20:44:08.731Z,8.56
2019-05-11T20:49:10.363Z,8.47
2019-05-11T20:54:11.949Z,8.37
2019-05-11T20:59:13.428Z,8.30
2019-05-11T21:04:16.180Z,8.22
2019-05-11T21:09:18.412Z,8.18
2019-05-11T21:14:20.271Z,8.16
2019-05-11T21:19:21.905Z,8.16
2019-05-11T21:24:23.471Z,8.17
2019-05-11T21:29:25.070Z,8.09
2019-05-11T21:34:27.950Z,8.04
2019-05-11T21:39:29.625Z,7.97
2019-05-11T21:44:31.197Z,7.90
2019-05-11T21:49:32.738Z,7.82
2019-05-11T21:54:34.288Z,7.71
2019-05-11T21:59:37.847Z,7.66
2019-05-11T22:04:39.247Z,7.58
2019-05-11T22:09:40.775Z,7.57
2019-05-11T22:14:42.287Z,7.63
2019-05-11T22:19:43.788Z,7.64
2019-05-11T22:24:47.617Z,7.68
2019-05-11T22:29:48.809Z,7.73
2019-05-11T22:34:50.360Z,7.70
2019-05-11T22:39:51.880Z,7.67
2019-05-11T22:44:53.474Z,7.66
2019-05-11T22:49:54.756Z,7.60
2019-05-11T22:54:56.185Z,7.61
2019-05-11T22:59:58.722Z,7.51
2019-05-11T23:05:01.412Z,7.41
2019-05-11T23:10:02.900Z,7.35
2019-05-11T23:15:04.437Z,7.30
2019-05-11T23:20:06.149Z,7.23
2019-05-11T23:25:08.128Z,7.19
2019-05-11T23:30:09.807Z,7.11
2019-05-11T23:35:11.359Z,7.06
2019-05-11T23:40:12.836Z,7.02
2019-05-11T23:45:14.273Z,7.00
2019-05-11T23:50:18.947Z,6.95
2019-05-11T23:55:20.047Z,6.90
